Galeon Andalucia — EAIZ — position and weather

sailwx.info

Track history (hours):
 
Tides and Currents Weather Stations Pressure Air Temp Water Temp Dewpoint Dewpoint Depression Visibility Wind Speed Wind Dir Waves Ship Positions

Galeon Andalucia

Last reported at 2019-Jun-16 23:30 UTC. Time now 2019-Jun-17 18:38 UTC.
Position N 49°35' W 000°28'.

Length 47 m; draft 3.2 m.

Type: Ship. MMSI: 225356000.

Date/timePositionNaut miles runAvg speedWind from/ knotsBaromVisibWave heightAir tempDewpointWater temp
2019-Jun-16 23:30N 49°35' W 000°28'2 4.6
2019-Jun-16 23:00N 49°34' W 000°24'2 4.0
2019-Jun-16 22:30N 49°34' W 000°21'2 3.6
2019-Jun-16 22:00N 49°33' W 000°19'2 3.5
2019-Jun-16 21:30N 49°32' W 000°16'2 3.0
2019-Jun-16 21:00N 49°32' W 000°14'1 3.0
2019-Jun-16 20:30N 49°32' W 000°12'2 3.0
2019-Jun-16 20:00N 49°31' W 000°10'2 3.3
2019-Jun-16 19:30N 49°30' W 000°07'2 3.4
2019-Jun-16 19:00N 49°30' W 000°05'2 3.6
2019-Jun-16 18:30N 49°29' W 000°03'2 4.6
2019-Jun-16 18:00N 49°28' E 000°00'3 6.2
2019-Jun-16 17:30N 49°26' E 000°05'4 7.9
2019-Jun-16 17:00N 49°26' E 000°11'5 9.7
2019-Jun-16 16:30N 49°26' E 000°18'510.3
2019-Jun-16 16:00N 49°27' E 000°26'4 8.8
2019-Jun-16 15:30N 49°28' E 000°33'4 8.9
2019-Jun-16 15:00N 49°27' E 000°39'5 9.7
2019-Jun-16 14:30N 49°31' E 000°43'3 6.8
2019-Jun-16 14:00N 49°29' E 000°47'3 6.2
2019-Jun-16 13:30N 49°26' E 000°48'3 6.2
2019-Jun-16 13:00N 49°24' E 000°51'3 5.7
2019-Jun-16 12:30N 49°27' E 000°52'3 5.7
2019-Jun-16 12:00N 49°29' E 000°53'2 3.8
2019-Jun-16 11:30N 49°28' E 000°56'3 5.6
2019-Jun-16 11:00N 49°25' E 000°56'3 6.4
2019-Jun-16 10:30N 49°22' E 000°55'3 5.3
2019-Jun-16 10:00N 49°21' E 000°59'3 5.6
2019-Jun-16 09:30N 49°24' E 001°01'2 4.0
2019-Jun-16 09:00N 49°26' E 001°02'2 4.0
2019-Jun-16 08:30N 49°27' E 001°04'0 0.0
2019-Jun-16 08:00N 49°27' E 001°04'0 0.0
2019-Jun-16 07:30N 49°27' E 001°04'0 0.0
2019-Jun-16 07:00N 49°27' E 001°04'  
Track history (hours):
 
Tides and Currents Weather Stations Pressure Air Temp Water Temp Dewpoint Dewpoint Depression Visibility Wind Speed Wind Dir Waves Ship Positions

Galeon Andalucia

Last reported at 2019-Jun-16 23:30 UTC. Time now 2019-Jun-17 18:38 UTC.
Position N 49°35' W 000°28'.

Length 47 m; draft 3.2 m.

Type: Ship. MMSI: 225356000.

Date/timePositionNaut miles runAvg speedWind from/ knotsBaromVisibWave heightAir tempDewpointWater temp
2019-Jun-16 23:30N 49°35' W 000°28'2 4.6
2019-Jun-16 23:00N 49°34' W 000°24'2 4.0
2019-Jun-16 22:30N 49°34' W 000°21'2 3.6
2019-Jun-16 22:00N 49°33' W 000°19'2 3.5
2019-Jun-16 21:30N 49°32' W 000°16'2 3.0
2019-Jun-16 21:00N 49°32' W 000°14'1 3.0
2019-Jun-16 20:30N 49°32' W 000°12'2 3.0
2019-Jun-16 20:00N 49°31' W 000°10'2 3.3
2019-Jun-16 19:30N 49°30' W 000°07'2 3.4
2019-Jun-16 19:00N 49°30' W 000°05'2 3.6
2019-Jun-16 18:30N 49°29' W 000°03'2 4.6
2019-Jun-16 18:00N 49°28' E 000°00'3 6.2
2019-Jun-16 17:30N 49°26' E 000°05'4 7.9
2019-Jun-16 17:00N 49°26' E 000°11'5 9.7
2019-Jun-16 16:30N 49°26' E 000°18'510.3
2019-Jun-16 16:00N 49°27' E 000°26'4 8.8
2019-Jun-16 15:30N 49°28' E 000°33'4 8.9
2019-Jun-16 15:00N 49°27' E 000°39'5 9.7
2019-Jun-16 14:30N 49°31' E 000°43'3 6.8
2019-Jun-16 14:00N 49°29' E 000°47'3 6.2
2019-Jun-16 13:30N 49°26' E 000°48'3 6.2
2019-Jun-16 13:00N 49°24' E 000°51'3 5.7
2019-Jun-16 12:30N 49°27' E 000°52'3 5.7
2019-Jun-16 12:00N 49°29' E 000°53'2 3.8
2019-Jun-16 11:30N 49°28' E 000°56'3 5.6
2019-Jun-16 11:00N 49°25' E 000°56'3 6.4
2019-Jun-16 10:30N 49°22' E 000°55'3 5.3
2019-Jun-16 10:00N 49°21' E 000°59'3 5.6
2019-Jun-16 09:30N 49°24' E 001°01'2 4.0
2019-Jun-16 09:00N 49°26' E 001°02'2 4.0
2019-Jun-16 08:30N 49°27' E 001°04'0 0.0
2019-Jun-16 08:00N 49°27' E 001°04'0 0.0
2019-Jun-16 07:30N 49°27' E 001°04'0 0.0
2019-Jun-16 07:00N 49°27' E 001°04'  

Dump ship's entire track history